Latest Weather Observations for Mangalore

IDV60801

Issued at 10:05 pm EST Saturday 19 April 2014 (issued every 30 minutes, with the page automatically refreshed every 10 minutes)

About weather observations | Map of weather stations | Latest weather observations for VIC | Other Formats
Station Details ID: 088109 Name: MANGALORE AIRPORT Lat: -36.89 Lon: 145.19 Height: 140.8 m
Data from the previous 72 hours. | See also: Recent months at Mangalore
Date/Time
EST
Temp
°C
App
Temp
°C
Dew
Point
Rel
Hum
%
Delta-T
°C
Wind Press
QNH
hPa
Press
MSL
hPa
Rain
since 9 am
mm
Dir
 
Spd
km/h
Gust
km/h
Spd
kts
Gust
kts
19/10:00pm 6.9 4.2 5.5 91 0.6 SSE 9 9 5 5 1018.6 - 0.0
19/09:30pm 6.7 5.4 4.2 84 1.1 SSE 0 0 0 0 1018.7 - 0.0
19/09:00pm 8.7 6.6 6.8 88 0.9 SSE 7 9 4 5 1018.7 1018.6 0.0
19/08:30pm 7.3 4.9 4.4 82 1.3 SSE 6 7 3 4 1018.6 - 0.0
19/08:00pm 10.1 8.1 6.4 78 1.7 SSE 6 7 3 4 1018.6 - 0.0
19/07:30pm 10.1 8.1 6.1 76 1.9 SSE 6 9 3 5 1018.7 - 0.0
19/07:00pm 11.3 9.2 6.6 73 2.2 SSE 7 9 4 5 1018.6 - 0.0
19/06:30pm 12.4 9.6 6.9 69 2.7 SSE 11 13 6 7 1018.5 - 0.0
19/06:00pm 13.2 10.9 5.6 60 3.6 SSE 7 9 4 5 1018.2 1018.1 0.0
19/05:30pm 13.9 11.1 5.3 56 4.1 S 9 11 5 6 1018.3 - 0.0
19/05:00pm 14.5 10.5 4.8 52 4.6 S 15 19 8 10 1018.1 - 0.0
19/04:30pm 14.9 11.0 3.4 46 5.3 SSW 13 20 7 11 1018.2 - 0.0
19/04:00pm 15.2 11.5 4.3 48 5.1 SSW 13 17 7 9 1018.4 - 0.0
19/03:30pm 15.0 11.7 4.7 50 4.8 SSW 11 19 6 10 1018.4 - 0.0
19/03:00pm 15.8 11.4 4.8 48 5.2 S 17 22 9 12 1018.4 1018.3 0.0
19/02:30pm 16.3 13.1 5.3 48 5.3 SSW 11 19 6 10 1018.6 - 0.0
19/02:00pm 15.0 11.1 5.2 52 4.7 S 15 20 8 11 1018.7 - 0.0
19/01:30pm 14.7 10.8 5.5 54 4.4 SSE 15 20 8 11 1019.2 - 0.0
19/01:00pm 14.7 11.8 6.3 57 4.1 SSW 11 17 6 9 1019.6 - 0.0
19/12:30pm 14.4 10.6 6.0 57 4.0 S 15 19 8 10 1020.2 - 0.0
19/12:00pm 13.7 9.5 5.8 59 3.8 S 17 24 9 13 1020.7 1020.6 0.0
19/11:30am 14.0 12.1 6.6 61 3.6 SSW 6 13 3 7 1020.7 - 0.0
19/11:00am 13.3 10.4 6.6 64 3.2 S 11 15 6 8 1021.0 - 0.0
19/10:30am 12.4 9.5 6.7 68 2.7 SSW 11 15 6 8 1021.0 - 0.0
19/10:00am 11.9 9.1 6.8 71 2.5 S 11 17 6 9 1021.1 - 0.0
19/09:30am 11.2 9.9 7.7 79 1.7 WNW 4 9 2 5 1021.1 - 0.0
19/09:00am 9.4 7.7 7.7 89 0.8 WNW 6 9 3 5 1021.0 1020.9 0.0
19/08:30am 7.3 5.4 6.7 96 0.3 WNW 6 7 3 4 1020.8 - 0.0
19/08:00am 5.7 4.6 5.3 97 0.2 CALM 0 6 0 3 1020.6 - 0.0
19/07:30am 3.7 2.2 3.1 96 0.2 CALM 0 0 0 0 1020.3 - 0.0
19/07:08am 2.9 1.3 2.2 95 0.3 CALM 0 0 0 0 1020.1 - 0.0
19/07:00am 2.7 1.0 2.0 95 0.3 CALM 0 0 0 0 1020.0 - 0.0
19/06:47am 3.0 1.4 2.3 95 0.3 CALM 0 0 0 0 1019.9 - 0.0
19/06:30am 3.7 2.2 3.1 96 0.2 CALM 0 0 0 0 1019.8 - 0.0
19/06:00am 2.7 1.0 1.8 94 0.4 CALM 0 0 0 0 1019.6 1019.4 0.0
19/05:30am 3.5 0.6 2.8 95 0.3 SW 7 11 4 6 1019.2 - 0.0
19/05:00am 3.1 1.5 2.2 94 0.4 CALM 0 6 0 3 1019.3 - 0.0
19/04:30am 3.6 1.7 2.6 93 0.4 SW 2 7 1 4 1019.2 - 0.0
19/04:00am 3.9 1.0 2.7 92 0.5 SW 7 7 4 4 1019.2 - 0.0
19/03:30am 4.9 1.8 3.6 91 0.5 SW 9 11 5 6 1019.1 - 0.0
19/03:00am 4.8 2.9 2.8 87 0.8 SW 2 6 1 3 1019.1 1018.9 0.0
19/02:30am 6.0 3.4 3.3 83 1.1 SW 6 7 3 4 1019.3 - 0.0
19/02:00am 7.9 5.4 4.8 81 1.4 SW 7 9 4 5 1019.3 - 0.0
19/01:30am 8.1 5.3 5.2 82 1.3 WSW 9 13 5 7 1019.6 - 0.0
19/01:00am 7.5 4.2 4.8 83 1.2 SW 11 13 6 7 1019.9 - 0.0
19/12:30am 8.8 6.0 5.2 78 1.6 SSW 9 11 5 6 1019.9 - 0.0
19/12:00am 9.2 6.0 5.0 75 1.9 SW 11 13 6 7 1020.0 1019.9 0.0
 
Date/Time
EST
Temp
°C
App
Temp
°C
Dew
Point
Rel
Hum
%
Delta-T
°C
Wind Press
QNH
hPa
Press
MSL
hPa
Rain
since 9 am
mm
Dir
 
Spd
km/h
Gust
km/h
Spd
kts
Gust
kts
18/11:30pm 9.0 4.7 5.2 77 1.7 SW 17 19 9 10 1019.9 - 0.0
18/11:00pm 9.2 5.3 5.2 76 1.8 WSW 15 17 8 9 1020.2 - 0.0
18/10:30pm 10.0 6.4 5.2 72 2.2 SW 13 17 7 9 1020.1 - 0.0
18/10:00pm 10.8 7.6 5.1 68 2.6 SW 11 17 6 9 1020.4 - 0.0
18/09:30pm 11.7 7.7 5.1 64 3.1 SSW 15 22 8 12 1020.3 - 0.0
18/09:00pm 11.7 7.9 5.6 66 2.8 SSW 15 22 8 12 1020.0 1019.9 0.0
18/08:30pm 11.8 8.4 5.9 67 2.8 SSW 13 20 7 11 1019.6 - 0.0
18/08:00pm 12.5 9.2 6.5 67 2.9 SW 13 15 7 8 1019.3 - 0.0
18/07:30pm 13.3 9.3 6.6 64 3.2 SSW 17 20 9 11 1018.9 - 0.0
18/07:00pm 13.5 9.5 6.8 64 3.3 SSW 17 22 9 12 1018.5 - 0.0
18/06:30pm 14.0 9.5 6.1 59 3.8 S 19 26 10 14 1018.0 - 0.0
18/06:00pm 14.5 9.6 5.0 53 4.5 SSW 20 32 11 17 1017.8 1017.7 0.0
18/05:30pm 15.2 10.9 5.1 51 4.8 SSW 17 30 9 16 1017.5 - 0.0
18/05:00pm 15.5 11.2 7.0 57 4.2 SSW 19 30 10 16 1017.1 - 0.0
18/04:30pm 15.9 10.5 7.9 59 4.0 S 26 35 14 19 1017.0 - 0.0
18/04:03pm 15.7 9.2 8.0 60 3.9 S 32 50 17 27 1016.7 - 0.0
18/04:00pm 15.7 8.9 7.7 59 4.0 S 33 50 18 27 1016.7 - 0.0
18/03:48pm 16.6 11.0 8.6 59 4.1 S 28 46 15 25 1016.5 - 0.0
18/03:30pm 16.4 10.5 7.3 55 4.6 SSW 28 41 15 22 1016.4 - 0.0
18/03:00pm 17.1 12.5 9.5 61 4.0 SSW 24 33 13 18 1016.2 1016.1 0.0
18/02:30pm 16.2 11.3 9.8 66 3.4 S 26 39 14 21 1016.0 - 0.0
18/02:00pm 15.5 10.7 10.3 71 2.8 S 26 39 14 21 1016.0 - 0.0
18/01:30pm 14.8 9.8 11.0 78 2.0 S 28 41 15 22 1015.9 - 0.0
18/01:11pm 16.5 10.3 9.2 62 3.8 SSW 32 52 17 28 1015.7 - 0.0
18/01:00pm 19.0 15.5 10.8 59 4.5 W 20 28 11 15 1015.1 - 0.0
18/12:30pm 19.2 16.5 11.7 62 4.2 W 17 24 9 13 1015.5 - 0.0
18/12:00pm 18.1 15.3 11.2 64 3.8 W 17 26 9 14 1016.1 1016.0 0.0
18/11:30am 17.1 15.5 11.4 69 3.1 NNW 11 17 6 9 1016.3 - 0.0
18/11:00am 16.7 15.4 11.4 71 2.9 NNW 9 13 5 7 1016.7 - 0.0
18/10:30am 15.3 13.5 10.9 75 2.4 NNW 11 15 6 8 1016.9 - 0.0
18/10:00am 15.6 13.4 12.0 79 2.0 NNE 15 20 8 11 1016.6 - 0.0
18/09:30am 13.8 12.1 11.1 84 1.4 N 11 15 6 8 1017.0 - 0.0
18/09:00am 13.1 11.8 11.2 88 1.0 WSW 9 9 5 5 1017.2 1017.1 0.0
18/08:30am 11.6 11.7 10.3 92 0.7 CALM 0 0 0 0 1017.5 - 0.0
18/08:00am 10.5 8.4 9.6 94 0.5 WSW 11 19 6 10 1017.4 - 0.0
18/07:30am 8.7 6.9 7.9 95 0.4 WSW 7 9 4 5 1016.9 - 0.0
18/07:00am 7.9 7.2 7.0 94 0.4 CALM 0 0 0 0 1017.1 - 0.0
18/06:30am 8.0 7.3 6.9 93 0.5 CALM 0 0 0 0 1016.9 - 0.0
18/06:00am 8.4 7.8 7.3 93 0.5 CALM 0 0 0 0 1016.9 1016.8 0.0
18/05:30am 8.4 6.4 7.3 93 0.5 WSW 7 7 4 4 1016.9 - 0.0
18/05:00am 8.0 7.2 6.6 91 0.6 CALM 0 0 0 0 1016.9 - 0.0
18/04:30am 8.9 8.3 7.4 90 0.7 CALM 0 0 0 0 1016.9 - 0.0
18/04:00am 9.3 8.0 7.7 90 0.8 WSW 4 6 2 3 1017.0 - 0.0
18/03:30am 9.6 7.4 7.7 88 0.9 WSW 9 11 5 6 1016.8 - 0.0
18/03:00am 9.6 7.1 8.4 92 0.6 WSW 11 13 6 7 1016.9 1016.8 0.0
18/02:30am 9.2 8.6 7.6 90 0.8 CALM 0 0 0 0 1017.4 - 0.0
18/02:00am 9.9 8.2 8.2 89 0.8 WSW 7 9 4 5 1017.6 - 0.0
18/01:30am 11.2 9.9 9.3 88 1.0 WSW 6 7 3 4 1018.0 - 0.0
18/01:00am 11.3 11.1 9.2 87 1.1 CALM 0 0 0 0 1018.2 - 0.0
18/12:30am 10.8 10.6 8.9 88 0.9 CALM 0 0 0 0 1018.2 - 0.0
18/12:00am 10.4 9.0 8.7 89 0.8 WSW 6 7 3 4 1018.5 1018.4 0.0
 
Date/Time
EST
Temp
°C
App
Temp
°C
Dew
Point
Rel
Hum
%
Delta-T
°C
Wind Press
QNH
hPa
Press
MSL
hPa
Rain
since 9 am
mm
Dir
 
Spd
km/h
Gust
km/h
Spd
kts
Gust
kts
17/11:30pm 10.5 8.9 8.8 89 0.8 WSW 7 9 4 5 1018.6 - 0.0
17/11:00pm 10.8 9.5 9.1 89 0.9 WSW 6 7 3 4 1018.9 - 0.0
17/10:30pm 10.7 9.1 8.6 87 1.0 WSW 7 9 4 5 1019.1 - 0.0
17/10:00pm 11.0 9.1 8.9 87 1.0 WSW 9 9 5 5 1019.3 - 0.0
17/09:30pm 11.4 9.9 9.0 85 1.2 WSW 7 9 4 5 1019.3 - 0.0
17/09:00pm 12.2 10.5 9.8 85 1.2 WSW 9 11 5 6 1019.2 1019.0 0.0
17/08:30pm 12.9 11.0 10.4 85 1.3 WSW 11 13 6 7 1019.4 - 0.0
17/08:00pm 12.9 10.8 9.9 82 1.5 WSW 11 11 6 6 1019.4 - 0.0
17/07:30pm 13.5 12.2 10.1 80 1.8 WSW 7 9 4 5 1019.3 - 0.0
17/07:00pm 14.6 13.4 10.4 76 2.2 WSW 7 7 4 4 1019.2 - 0.0
17/06:30pm 15.8 15.6 10.3 70 2.9 WSW 2 7 1 4 1018.9 - 0.0
17/06:24pm 15.9 16.1 10.4 70 2.9 CALM 0 0 0 0 1018.9 - 0.0
17/06:11pm 17.2 17.4 10.6 65 3.5 CALM 0 0 0 0 1018.9 - 0.0
17/06:00pm 17.8 17.9 10.2 61 4.1 CALM 0 0 0 0 1018.9 1018.8 0.0
17/05:30pm 19.5 19.6 10.0 54 5.1 CALM 0 0 0 0 1018.7 - 0.0
17/05:00pm 20.6 20.3 10.1 51 5.7 WSW 2 6 1 3 1018.7 - 0.0
17/04:30pm 21.2 19.5 8.5 44 6.7 WSW 7 9 4 5 1018.8 - 0.0
17/04:00pm 21.7 20.2 9.3 45 6.7 W 7 11 4 6 1018.9 - 0.0
17/03:30pm 21.7 19.4 8.9 44 6.8 W 11 15 6 8 1019.1 - 0.0
17/03:00pm 22.0 20.4 10.2 47 6.5 SSW 9 15 5 8 1019.4 1019.2 0.0
17/02:30pm 22.1 21.0 10.6 48 6.4 NNW 7 11 4 6 1019.5 - 0.0
17/02:00pm 22.2 21.2 10.4 47 6.5 NW 6 19 3 10 1019.8 - 0.0
17/01:30pm 21.4 19.9 9.3 46 6.5 NW 7 11 4 6 1020.0 - 0.0
17/01:00pm 21.1 19.9 10.3 50 5.9 NW 7 11 4 6 1020.2 - 0.0
17/12:30pm 20.4 18.9 10.5 53 5.4 NW 9 15 5 8 1020.7 - 0.0
17/12:00pm 19.9 18.1 9.5 51 5.5 WNW 9 17 5 9 1021.2 1021.1 0.0
17/11:30am 19.1 17.7 9.6 54 5.1 NW 7 11 4 6 1021.5 - 0.0
17/11:00am 19.3 19.1 10.6 57 4.7 NW 2 7 1 4 1021.6 - 0.0
17/10:30am 18.0 17.7 11.3 65 3.7 NW 4 7 2 4 1021.5 - 0.0
17/10:00am 16.8 16.4 11.1 69 3.1 NW 4 7 2 4 1021.6 - 0.0
17/09:30am 15.4 15.6 10.4 72 2.6 CALM 0 6 0 3 1021.7 - 0.0
17/09:00am 13.4 13.6 10.4 82 1.6 CALM 0 0 0 0 1021.8 1021.7 0.0
17/08:30am 11.3 10.9 9.9 91 0.7 NW 2 7 1 4 1021.8 - 0.0
17/08:00am 9.7 9.5 8.9 95 0.4 CALM 0 0 0 0 1021.5 - 0.0
17/07:30am 8.1 7.5 7.5 96 0.3 CALM 0 0 0 0 1021.4 - 0.0
17/07:00am 8.5 6.9 7.9 96 0.3 NW 6 9 3 5 1021.1 - 0.0
17/06:30am 8.3 6.6 7.5 95 0.4 W 6 6 3 3 1020.7 - 0.0
17/06:00am 8.7 8.2 7.9 95 0.4 CALM 0 0 0 0 1020.5 1020.4 0.0
17/05:30am 8.6 7.0 7.8 95 0.4 W 6 7 3 4 1020.3 - 0.0
17/05:00am 8.5 6.8 7.7 95 0.4 W 6 9 3 5 1020.1 - 0.0
17/04:30am 8.5 6.7 7.9 96 0.3 W 7 9 4 5 1019.9 - 0.0
17/04:00am 8.9 7.2 8.3 96 0.3 W 7 9 4 5 1019.8 - 0.0
17/03:30am 8.7 6.9 7.9 95 0.4 W 7 11 4 6 1019.6 - 0.0
17/03:00am 8.6 6.7 7.7 94 0.4 WNW 7 11 4 6 1019.6 1019.4 0.0
17/02:30am 8.3 6.6 7.4 94 0.4 NW 6 9 3 5 1019.6 - 0.0
17/02:00am 8.0 6.0 6.9 93 0.5 NW 7 9 4 5 1019.7 - 0.0
17/01:30am 9.8 7.9 9.0 95 0.4 NW 9 11 5 6 1019.9 - 0.0
17/01:00am 9.0 7.2 7.9 93 0.5 NW 7 9 4 5 1019.8 - 0.0
17/12:30am 9.6 8.1 8.4 92 0.6 NW 6 7 3 4 1019.7 - 0.0
17/12:00am 9.4 9.0 8.2 92 0.6 CALM 0 0 0 0 1019.6 1019.4 0.0
 
Date/Time
EST
Temp
°C
App
Temp
°C
Dew
Point
Rel
Hum
%
Delta-T
°C
Wind Press
QNH
hPa
Press
MSL
hPa
Rain
since 9 am
mm
Dir
 
Spd
km/h
Gust
km/h
Spd
kts
Gust
kts
16/11:30pm 8.9 7.5 7.4 90 0.7 NW 4 7 2 4 1019.6 - 0.0
16/11:00pm 10.3 8.7 8.9 91 0.7 NW 7 13 4 7 1020.1 - 0.0
16/10:30pm 10.2 9.1 8.5 89 0.8 NW 4 7 2 4 1020.3 - 0.0

Other Formats:

Comma delimited format used in spreadsheet applications
http://www.bom.gov.au/fwo/IDV60801/IDV60801.94874.axf

JavaScript Object Notation format (JSON) in row-major order
http://www.bom.gov.au/fwo/IDV60801/IDV60801.94874.json